createdAt,value
2019-01-09T00:00:28.172Z,100150.47
2019-01-09T00:02:57.804Z,100147.19
2019-01-09T00:05:28.447Z,100149.92
2019-01-09T00:07:55.734Z,100149.09
2019-01-09T00:10:23.867Z,100150.40
2019-01-09T00:12:51.850Z,100148.76
2019-01-09T00:15:19.894Z,100150.40
2019-01-09T00:17:47.966Z,100149.44
2019-01-09T00:20:16.028Z,100135.98
2019-01-09T00:22:44.028Z,100139.39
2019-01-09T00:25:12.434Z,100135.64
2019-01-09T00:27:40.422Z,100130.30
2019-01-09T00:30:09.060Z,100125.11
2019-01-09T00:32:38.034Z,100117.18
2019-01-09T00:35:06.679Z,100120.02
2019-01-09T00:37:35.101Z,100120.35
2019-01-09T00:40:03.489Z,100115.50
2019-01-09T00:42:31.513Z,100114.41
2019-01-09T00:45:03.491Z,100109.09
2019-01-09T00:47:31.504Z,100103.77
2019-01-09T00:49:59.510Z,100109.98
2019-01-09T00:52:27.845Z,100107.61
2019-01-09T00:54:55.820Z,100107.47
2019-01-09T00:57:23.840Z,100114.51
2019-01-09T00:59:51.867Z,100111.66
2019-01-09T01:03:12.595Z,100107.96
2019-01-09T01:06:58.129Z,100103.11
2019-01-09T01:10:38.911Z,100097.09
2019-01-09T01:13:33.996Z,100094.30
2019-01-09T01:16:39.378Z,100096.69
2019-01-09T01:20:02.318Z,100087.80
2019-01-09T01:23:45.705Z,100094.16
2019-01-09T01:27:07.676Z,100094.16
2019-01-09T01:30:15.260Z,100087.66
2019-01-09T01:33:43.742Z,100082.32
2019-01-09T01:37:07.319Z,100085.06
2019-01-09T01:40:18.588Z,100085.29
2019-01-09T01:44:12.056Z,100089.52
2019-01-09T01:47:46.040Z,100085.48
2019-01-09T01:51:06.797Z,100083.37
2019-01-09T01:54:46.663Z,100078.37
2019-01-09T01:58:07.469Z,100076.59
2019-01-09T02:01:18.955Z,100065.38
2019-01-09T02:05:04.329Z,100064.41
2019-01-09T02:08:08.079Z,100058.40
2019-01-09T02:11:29.832Z,100059.56
2019-01-09T02:14:37.362Z,100060.86
2019-01-09T02:18:14.242Z,100059.56
2019-01-09T02:21:46.684Z,100059.22
2019-01-09T02:24:59.157Z,100059.22
2019-01-09T02:28:24.120Z,100064.75
2019-01-09T02:31:24.481Z,100058.88
2019-01-09T02:33:52.495Z,100061.96
2019-01-09T02:36:20.516Z,100054.98
2019-01-09T02:38:48.569Z,100061.00
2019-01-09T02:41:16.644Z,100062.16
2019-01-09T02:43:45.297Z,100058.97
2019-01-09T02:46:13.323Z,100053.63
2019-01-09T02:48:41.309Z,100049.11
2019-01-09T02:51:09.666Z,100041.20
2019-01-09T02:53:37.664Z,100051.93
2019-01-09T02:56:05.722Z,100046.25
2019-01-09T02:58:34.078Z,100048.56
2019-01-09T03:01:02.179Z,100040.63
2019-01-09T03:03:30.169Z,100047.49
2019-01-09T03:05:58.241Z,100040.52
2019-01-09T03:08:26.648Z,100040.17
2019-01-09T03:10:54.692Z,100033.39
2019-01-09T03:13:22.692Z,100030.65
2019-01-09T03:15:50.708Z,100030.16
2019-01-09T03:18:19.053Z,100015.05
2019-01-09T03:20:47.329Z,100014.09
2019-01-09T03:23:15.633Z,100006.77
2019-01-09T03:25:43.972Z,100014.09
2019-01-09T03:28:12.050Z,100027.08
2019-01-09T03:30:40.125Z,100016.69
2019-01-09T03:33:08.146Z,100011.01
2019-01-09T03:35:36.128Z,100015.73
2019-01-09T03:38:04.096Z,100005.33
2019-01-09T03:40:32.156Z,100007.81
2019-01-09T03:43:00.168Z,100000.50
2019-01-09T03:45:28.165Z,99995.16
2019-01-09T03:47:57.079Z,99988.66
2019-01-09T03:50:25.112Z,99990.92
2019-01-09T03:52:53.138Z,99985.09
2019-01-09T03:55:21.136Z,99983.94
2019-01-09T03:57:49.123Z,99980.52
2019-01-09T04:00:17.132Z,99980.64
2019-01-09T04:02:45.145Z,99980.78
2019-01-09T04:05:14.248Z,99967.30
2019-01-09T04:07:42.280Z,99966.62
2019-01-09T04:10:10.301Z,99970.53
2019-01-09T04:12:38.293Z,99968.56
2019-01-09T04:15:07.888Z,99970.82
2019-01-09T04:17:35.877Z,99974.35
2019-01-09T04:20:04.019Z,99975.31
2019-01-09T04:22:32.047Z,99977.09
2019-01-09T04:25:00.225Z,99974.02
2019-01-09T04:27:28.231Z,99981.81
2019-01-09T04:29:57.003Z,99991.24
2019-01-09T04:32:24.997Z,99989.12
2019-01-09T04:34:53.026Z,99987.48
2019-01-09T04:37:21.427Z,99983.26
2019-01-09T04:39:49.446Z,99972.04
2019-01-09T04:42:17.449Z,99983.41
2019-01-09T04:44:45.631Z,99980.80
2019-01-09T04:47:13.670Z,99982.09
2019-01-09T04:49:41.722Z,99978.20
2019-01-09T04:52:09.758Z,99970.74
2019-01-09T04:54:37.762Z,99975.31
2019-01-09T04:57:06.889Z,99977.09
2019-01-09T04:59:34.879Z,99968.00
2019-01-09T05:02:02.935Z,99968.96
2019-01-09T05:04:31.091Z,99965.06
2019-01-09T05:07:00.667Z,99954.67
2019-01-09T05:09:29.050Z,99952.55
2019-01-09T05:11:57.925Z,99946.88
2019-01-09T05:14:25.923Z,99938.73
2019-01-09T05:16:54.727Z,99937.78
2019-01-09T05:19:22.741Z,99948.17
2019-01-09T05:21:50.755Z,99940.19
2019-01-09T05:24:18.719Z,99936.77
2019-01-09T05:26:46.728Z,99935.58
2019-01-09T05:29:14.743Z,99940.78
2019-01-09T05:31:42.776Z,99938.18
2019-01-09T05:34:10.763Z,99939.48
2019-01-09T05:36:38.779Z,99944.34
2019-01-09T05:39:07.129Z,99945.11
2019-01-09T05:41:35.152Z,99943.93
2019-01-09T05:44:03.180Z,99937.09
2019-01-09T05:46:31.270Z,99950.23
2019-01-09T05:49:02.448Z,99942.25
2019-01-09T05:51:30.776Z,99934.94
2019-01-09T05:54:01.042Z,99933.16
2019-01-09T05:56:47.369Z,99936.23
2019-01-09T05:59:15.491Z,99931.86
2019-01-09T06:01:43.468Z,99928.55
2019-01-09T06:04:11.468Z,99927.73
2019-01-09T06:06:39.469Z,99928.22
2019-01-09T06:09:08.584Z,99928.55
2019-01-09T06:11:36.570Z,99931.15
2019-01-09T06:14:04.577Z,99930.33
2019-01-09T06:16:32.543Z,99926.32
2019-01-09T06:19:00.725Z,99921.61
2019-01-09T06:21:28.974Z,99921.38
2019-01-09T06:23:57.098Z,99919.41
2019-01-09T06:26:25.314Z,99922.75
2019-01-09T06:28:53.347Z,99915.66
2019-01-09T06:31:22.464Z,99919.56
2019-01-09T06:33:51.140Z,99918.73
2019-01-09T06:36:19.142Z,99915.77
2019-01-09T06:38:47.158Z,99913.17
2019-01-09T06:41:15.170Z,99909.28
2019-01-09T06:43:43.226Z,99908.80
2019-01-09T06:46:11.532Z,99909.65
2019-01-09T06:48:39.546Z,99914.22
2019-01-09T06:51:07.540Z,99916.33
2019-01-09T06:53:35.663Z,99906.91
2019-01-09T06:56:03.968Z,99913.40
2019-01-09T06:58:31.943Z,99905.38
2019-01-09T07:00:59.939Z,99909.56
2019-01-09T07:03:28.161Z,99907.94
2019-01-09T07:05:56.138Z,99914.09
2019-01-09T07:08:24.167Z,99912.57
2019-01-09T07:10:52.161Z,99907.18
2019-01-09T07:13:20.174Z,99912.23
2019-01-09T07:15:48.190Z,99908.63
2019-01-09T07:18:16.596Z,99908.63
2019-01-09T07:20:44.617Z,99909.44
2019-01-09T07:23:12.651Z,99907.44
2019-01-09T07:25:40.860Z,99905.95
2019-01-09T07:28:08.885Z,99907.25
2019-01-09T07:30:36.886Z,99910.33
2019-01-09T07:33:04.863Z,99906.09
2019-01-09T07:35:32.875Z,99902.53
2019-01-09T07:38:01.558Z,99906.77
2019-01-09T07:40:29.594Z,99908.20
2019-01-09T07:42:57.935Z,99911.14
2019-01-09T07:45:25.936Z,99916.34
2019-01-09T07:47:54.363Z,99920.23
2019-01-09T07:50:22.415Z,99913.88
2019-01-09T07:52:50.428Z,99920.86
2019-01-09T07:55:18.475Z,99924.89
2019-01-09T07:57:46.445Z,99933.50
2019-01-09T08:00:14.528Z,99943.52
2019-01-09T08:02:42.522Z,99944.00
2019-01-09T08:05:10.536Z,99946.97
2019-01-09T08:07:38.529Z,99954.39
2019-01-09T08:10:08.809Z,99942.03
2019-01-09T08:12:36.814Z,99951.31
2019-01-09T08:15:05.987Z,99955.92
2019-01-09T08:17:33.988Z,99963.23
2019-01-09T08:20:02.103Z,99963.56
2019-01-09T08:22:30.447Z,99969.58
2019-01-09T08:24:58.472Z,99966.84
2019-01-09T08:27:26.465Z,99971.22
2019-01-09T08:29:54.490Z,99964.72
2019-01-09T08:32:22.508Z,99966.36
2019-01-09T08:34:50.940Z,99973.55
2019-01-09T08:37:18.958Z,99977.79
2019-01-09T08:39:46.993Z,99975.78
2019-01-09T08:42:14.979Z,99988.52
2019-01-09T08:44:43.337Z,99981.55
2019-01-09T08:47:11.334Z,99974.77
2019-01-09T08:49:39.352Z,99973.02
2019-01-09T08:52:07.640Z,99977.11
2019-01-09T08:54:35.637Z,99978.75
2019-01-09T08:57:03.615Z,99979.42
2019-01-09T08:59:31.964Z,99979.30
2019-01-09T09:02:02.758Z,99983.88
2019-01-09T09:04:30.762Z,99983.25
2019-01-09T09:06:58.754Z,99984.64
2019-01-09T09:09:28.440Z,99986.47
2019-01-09T09:11:56.445Z,99994.34
2019-01-09T09:14:24.419Z,99985.92
2019-01-09T09:16:52.795Z,99998.17
2019-01-09T09:19:20.795Z,100000.82
2019-01-09T09:21:48.786Z,100010.48
2019-01-09T09:24:16.823Z,100013.75
2019-01-09T09:26:44.828Z,100018.47
2019-01-09T09:29:12.886Z,100010.89
2019-01-09T09:31:40.887Z,100016.77
2019-01-09T09:34:09.277Z,100021.34
2019-01-09T09:36:37.276Z,100016.36
2019-01-09T09:39:08.876Z,100023.73
2019-01-09T09:41:36.884Z,100020.24
2019-01-09T09:44:04.973Z,100018.73
2019-01-09T09:46:33.326Z,100019.80
2019-01-09T09:49:01.341Z,100022.67
2019-01-09T09:51:29.328Z,100022.93
2019-01-09T09:53:57.311Z,100025.16
2019-01-09T09:56:25.302Z,100024.94
2019-01-09T09:58:53.310Z,100027.80
2019-01-09T10:01:22.220Z,100031.62
2019-01-09T10:03:50.214Z,100034.95
2019-01-09T10:06:18.215Z,100035.02
2019-01-09T10:08:46.240Z,100036.70
2019-01-09T10:11:14.331Z,100037.73
2019-01-09T10:13:42.422Z,100031.73
2019-01-09T10:16:10.444Z,100036.67
2019-01-09T10:18:38.458Z,100038.16
2019-01-09T10:21:06.484Z,100034.13
2019-01-09T10:23:34.594Z,100032.83
2019-01-09T10:26:03.140Z,100031.53
2019-01-09T10:28:31.156Z,100024.54
2019-01-09T10:30:59.178Z,100021.45
2019-01-09T10:33:27.155Z,100025.36
2019-01-09T10:35:55.193Z,100022.75
2019-01-09T10:38:23.562Z,100020.97
2019-01-09T10:40:53.295Z,100022.42
2019-01-09T10:43:21.303Z,100023.02
2019-01-09T10:45:50.813Z,100022.20
2019-01-09T10:48:19.926Z,100018.45
2019-01-09T10:50:47.921Z,100019.09
2019-01-09T10:53:15.966Z,100020.88
2019-01-09T10:55:44.015Z,100028.95
2019-01-09T10:58:12.075Z,100029.25
2019-01-09T11:00:40.076Z,100028.89
2019-01-09T11:03:08.069Z,100029.34
2019-01-09T11:05:36.077Z,100027.48
2019-01-09T11:08:04.120Z,100026.48
2019-01-09T11:10:32.141Z,100032.10
2019-01-09T11:13:00.170Z,100029.98
2019-01-09T11:15:28.208Z,100027.67
2019-01-09T11:17:56.215Z,100022.95
2019-01-09T11:20:24.241Z,100021.17
2019-01-09T11:22:52.614Z,100013.84
2019-01-09T11:25:26.608Z,100011.36
2019-01-09T11:27:54.611Z,100017.75
2019-01-09T11:30:22.737Z,100008.64
2019-01-09T11:32:50.744Z,100001.51
2019-01-09T11:35:21.443Z,99991.09
2019-01-09T11:37:49.428Z,99987.38
2019-01-09T11:40:18.538Z,99983.54
2019-01-09T11:42:46.571Z,99981.45
2019-01-09T11:45:16.239Z,99971.98
2019-01-09T11:47:45.373Z,99976.31
2019-01-09T11:50:14.050Z,99967.13
2019-01-09T11:52:42.115Z,99973.45
2019-01-09T11:55:11.702Z,99965.11
2019-01-09T11:57:39.740Z,99964.55
2019-01-09T12:00:16.502Z,99967.11
2019-01-09T12:02:44.870Z,99958.75
2019-01-09T12:05:12.959Z,99959.67
2019-01-09T12:07:41.272Z,99960.59
2019-01-09T12:10:10.945Z,99957.13
2019-01-09T12:12:39.008Z,99950.34
2019-01-09T12:15:10.617Z,99943.73
2019-01-09T12:17:38.646Z,99940.02
2019-01-09T12:20:07.388Z,99935.50
2019-01-09T12:22:35.695Z,99937.00
2019-01-09T12:25:04.649Z,99934.72
2019-01-09T12:27:32.651Z,99936.22
2019-01-09T12:30:01.031Z,99928.72
2019-01-09T12:32:29.036Z,99934.92
2019-01-09T12:34:57.053Z,99928.39
2019-01-09T12:37:25.052Z,99931.01
2019-01-09T12:39:55.143Z,99922.85
2019-01-09T12:42:22.937Z,99918.13
2019-01-09T12:44:50.998Z,99922.36
2019-01-09T12:47:18.989Z,99923.96
2019-01-09T12:49:47.060Z,99923.47
2019-01-09T12:52:15.090Z,99916.75
2019-01-09T12:54:43.131Z,99913.94
2019-01-09T12:57:11.111Z,99913.45
2019-01-09T12:59:39.152Z,99915.41
2019-01-09T13:02:07.125Z,99925.55
2019-01-09T13:04:35.132Z,99917.73
2019-01-09T13:07:03.359Z,99922.66
2019-01-09T13:09:31.457Z,99915.16
2019-01-09T13:11:59.497Z,99911.56
2019-01-09T13:14:27.512Z,99910.58
2019-01-09T13:16:55.541Z,99909.12
2019-01-09T13:19:24.574Z,99908.98
2019-01-09T13:21:52.666Z,99904.59
2019-01-09T13:24:20.643Z,99906.87
2019-01-09T13:26:48.689Z,99910.42
2019-01-09T13:29:16.685Z,99897.54
2019-01-09T13:31:44.745Z,99903.41
2019-01-09T13:34:13.054Z,99891.02
2019-01-09T13:36:41.081Z,99895.88
2019-01-09T13:39:09.223Z,99895.55
2019-01-09T13:41:37.609Z,99884.63
2019-01-09T13:44:05.709Z,99891.59
2019-01-09T13:46:34.150Z,99899.75
2019-01-09T13:49:02.127Z,99898.25
2019-01-09T13:51:30.324Z,99903.27
2019-01-09T13:53:58.306Z,99907.95
2019-01-09T13:56:26.610Z,99905.62
2019-01-09T13:58:54.984Z,99907.53
2019-01-09T14:01:23.173Z,99905.05
2019-01-09T14:03:51.701Z,99913.47
2019-01-09T14:06:20.067Z,99906.12
2019-01-09T14:08:48.080Z,99915.20
2019-01-09T14:11:16.677Z,99920.73
2019-01-09T14:13:44.710Z,99917.11
2019-01-09T14:16:12.791Z,99921.13
2019-01-09T14:18:40.882Z,99917.82
2019-01-09T14:21:08.947Z,99920.00
2019-01-09T14:23:37.059Z,99916.69
2019-01-09T14:26:05.703Z,99922.53
2019-01-09T14:28:33.699Z,99924.98
2019-01-09T14:31:01.819Z,99921.73
2019-01-09T14:33:29.951Z,99931.08
2019-01-09T14:35:58.715Z,99932.52
2019-01-09T14:38:26.807Z,99932.09
2019-01-09T14:40:54.819Z,99929.39
2019-01-09T14:43:22.968Z,99932.58
2019-01-09T14:45:50.917Z,99931.20
2019-01-09T14:48:18.943Z,99930.12
2019-01-09T14:50:47.702Z,99934.60
2019-01-09T14:53:15.958Z,99936.11
2019-01-09T14:55:43.958Z,99937.00
2019-01-09T14:58:11.979Z,99943.73
2019-01-09T15:00:39.947Z,99942.13
2019-01-09T15:03:08.033Z,99943.95
2019-01-09T15:05:36.072Z,99944.12
2019-01-09T15:08:06.168Z,99941.55
2019-01-09T15:10:34.185Z,99942.36
2019-01-09T15:13:02.446Z,99949.23
2019-01-09T15:15:30.523Z,99952.05
2019-01-09T15:17:58.568Z,99950.09
2019-01-09T15:20:26.585Z,99948.95
2019-01-09T15:22:54.670Z,99955.28
2019-01-09T15:25:22.762Z,99959.33
2019-01-09T15:27:50.824Z,99951.33
2019-01-09T15:30:25.194Z,99954.20
2019-01-09T15:32:53.831Z,99949.96
2019-01-09T15:35:21.984Z,99954.16
2019-01-09T15:37:50.442Z,99956.25
2019-01-09T15:40:27.747Z,99952.12
2019-01-09T15:42:56.132Z,99951.92
2019-01-09T15:45:24.416Z,99951.72
2019-01-09T15:47:52.627Z,99963.24
2019-01-09T15:50:21.343Z,99960.42
2019-01-09T15:52:49.337Z,99961.31
2019-01-09T15:55:17.566Z,99964.04
2019-01-09T15:57:45.799Z,99970.33
2019-01-09T16:00:29.933Z,99966.19
2019-01-09T16:02:58.070Z,99970.65
2019-01-09T16:05:26.368Z,99976.13
2019-01-09T16:07:54.409Z,99988.41
2019-01-09T16:10:23.405Z,99989.02
2019-01-09T16:12:52.440Z,99988.58
2019-01-09T16:15:20.628Z,99991.86
2019-01-09T16:17:48.630Z,99996.96
2019-01-09T16:20:17.611Z,100009.67
2019-01-09T16:22:46.091Z,100007.73
2019-01-09T16:25:56.327Z,100010.05
2019-01-09T16:28:33.671Z,100019.50
2019-01-09T16:31:33.111Z,100022.70
2019-01-09T16:34:01.468Z,100029.84
2019-01-09T16:36:30.690Z,100028.16
2019-01-09T16:38:58.794Z,100031.45
2019-01-09T16:41:26.910Z,100031.48
2019-01-09T16:43:55.137Z,100031.88
2019-01-09T16:46:23.210Z,100035.36
2019-01-09T16:48:51.331Z,100043.22
2019-01-09T16:51:19.411Z,100048.84
2019-01-09T16:53:47.802Z,100044.67
2019-01-09T16:56:15.840Z,100048.62
2019-01-09T16:58:43.868Z,100052.92
2019-01-09T17:01:12.068Z,100053.34
2019-01-09T17:03:40.123Z,100057.16
2019-01-09T17:06:11.846Z,100051.53
2019-01-09T17:08:40.116Z,100063.02
2019-01-09T17:11:08.669Z,100071.44
2019-01-09T17:13:37.042Z,100073.80
2019-01-09T17:16:06.347Z,100081.05
2019-01-09T17:18:34.818Z,100087.31
2019-01-09T17:21:03.322Z,100085.24
2019-01-09T17:23:31.492Z,100084.36
2019-01-09T17:25:59.609Z,100086.66
2019-01-09T17:28:27.609Z,100091.69
2019-01-09T17:30:55.695Z,100095.97
2019-01-09T17:33:23.836Z,100093.75
2019-01-09T17:35:51.973Z,100107.55
2019-01-09T17:38:21.351Z,100101.61
2019-01-09T17:40:50.617Z,100098.91
2019-01-09T17:43:18.644Z,100097.86
2019-01-09T17:45:46.826Z,100098.81
2019-01-09T17:48:14.907Z,100103.80
2019-01-09T17:50:43.236Z,100104.51
2019-01-09T17:53:11.609Z,100107.72
2019-01-09T17:55:39.651Z,100105.39
2019-01-09T17:58:08.126Z,100110.34
2019-01-09T18:00:40.432Z,100117.44
2019-01-09T18:03:08.505Z,100120.51
2019-01-09T18:05:36.697Z,100125.22
2019-01-09T18:08:10.510Z,100130.41
2019-01-09T18:10:35.121Z,100126.99
2019-01-09T18:13:03.606Z,100121.80
2019-01-09T18:15:31.732Z,100128.30
2019-01-09T18:17:59.820Z,100129.11
2019-01-09T18:20:27.962Z,100126.38
2019-01-09T18:22:55.966Z,100129.45
2019-01-09T18:25:26.213Z,100129.94
2019-01-09T18:27:54.278Z,100134.77
2019-01-09T18:30:39.872Z,100138.32
2019-01-09T18:33:25.944Z,100137.16
2019-01-09T18:36:20.135Z,100141.97
2019-01-09T18:39:51.259Z,100142.92
2019-01-09T18:43:33.597Z,100143.88
2019-01-09T18:47:02.634Z,100156.03
2019-01-09T18:50:29.177Z,100161.92
2019-01-09T18:53:27.789Z,100162.67
2019-01-09T18:55:56.262Z,100164.94
2019-01-09T18:58:24.290Z,100170.25
2019-01-09T19:00:53.343Z,100174.97
2019-01-09T19:03:21.355Z,100178.03
2019-01-09T19:05:49.558Z,100178.86
2019-01-09T19:08:17.752Z,100182.75
2019-01-09T19:10:46.264Z,100186.16
2019-01-09T19:13:14.334Z,100191.21
2019-01-09T19:15:43.854Z,100186.98
2019-01-09T19:18:11.909Z,100188.28
2019-01-09T19:20:39.981Z,100191.34
2019-01-09T19:23:08.279Z,100198.17
2019-01-09T19:25:37.478Z,100195.58
2019-01-09T19:28:06.413Z,100197.22
2019-01-09T19:30:34.670Z,100198.17
2019-01-09T19:33:02.923Z,100207.38
2019-01-09T19:35:30.988Z,100200.65
2019-01-09T19:38:00.438Z,100202.90
2019-01-09T19:40:28.546Z,100207.61
2019-01-09T19:42:56.807Z,100209.86
2019-01-09T19:45:25.062Z,100205.63
2019-01-09T19:47:53.238Z,100207.05
2019-01-09T19:50:23.094Z,100208.47
2019-01-09T19:52:52.214Z,100214.95
2019-01-09T19:55:20.727Z,100214.58
2019-01-09T19:57:48.819Z,100215.53
2019-01-09T20:00:20.533Z,100222.02
2019-01-09T20:02:50.118Z,100223.78
2019-01-09T20:05:18.939Z,100221.66
2019-01-09T20:07:48.725Z,100223.44
2019-01-09T20:10:20.026Z,100230.39
2019-01-09T20:12:48.159Z,100232.17
2019-01-09T20:15:17.830Z,100237.83
2019-01-09T20:17:46.247Z,100239.73
2019-01-09T20:20:16.101Z,100238.44
2019-01-09T20:22:44.974Z,100235.94
2019-01-09T20:25:14.248Z,100234.16
2019-01-09T20:27:43.714Z,100247.98
2019-01-09T20:30:31.819Z,100253.98
2019-01-09T20:33:00.266Z,100250.09
2019-01-09T20:35:28.470Z,100256.20
2019-01-09T20:37:57.899Z,100257.05
2019-01-09T20:40:26.649Z,100261.39
2019-01-09T20:42:54.916Z,100262.23
2019-01-09T20:45:23.339Z,100258.70
2019-01-09T20:47:51.509Z,100262.45
2019-01-09T20:50:26.931Z,100252.56
2019-01-09T20:52:55.132Z,100251.61
2019-01-09T20:55:23.994Z,100255.98
2019-01-09T20:57:52.711Z,100262.45
2019-01-09T21:00:27.034Z,100263.88
2019-01-09T21:02:58.997Z,100268.25
2019-01-09T21:05:31.654Z,100265.53
2019-01-09T21:08:01.239Z,100269.67
2019-01-09T21:10:29.650Z,100270.38
2019-01-09T21:12:57.882Z,100270.63
2019-01-09T21:15:26.032Z,100273.44
2019-01-09T21:17:54.189Z,100271.33
2019-01-09T21:20:22.249Z,100276.86
2019-01-09T21:22:50.567Z,100277.20
2019-01-09T21:25:19.063Z,100277.45
2019-01-09T21:27:48.322Z,100281.34
2019-01-09T21:30:19.183Z,100283.59
2019-01-09T21:32:47.216Z,100278.41
2019-01-09T21:35:15.496Z,100287.34
2019-01-09T21:37:45.129Z,100284.76
2019-01-09T21:40:20.612Z,100294.87
2019-01-09T21:42:48.934Z,100295.70
2019-01-09T21:45:17.018Z,100292.75
2019-01-09T21:47:46.518Z,100295.60
2019-01-09T21:50:16.036Z,100293.11
2019-01-09T21:52:45.379Z,100303.47
2019-01-09T21:55:15.782Z,100303.95
2019-01-09T21:57:43.850Z,100303.59
2019-01-09T22:00:18.960Z,100309.25
2019-01-09T22:02:47.028Z,100306.19
2019-01-09T22:05:15.233Z,100307.83
2019-01-09T22:07:43.780Z,100307.73
2019-01-09T22:10:33.944Z,100305.72
2019-01-09T22:13:02.368Z,100311.37
2019-01-09T22:15:30.518Z,100313.62
2019-01-09T22:17:58.539Z,100311.15
2019-01-09T22:20:26.554Z,100319.27
2019-01-09T22:22:54.546Z,100313.27
2019-01-09T22:25:22.659Z,100312.80
2019-01-09T22:27:50.717Z,100314.09
2019-01-09T22:30:24.363Z,100314.56
2019-01-09T22:32:52.826Z,100317.86
2019-01-09T22:35:20.903Z,100314.44
2019-01-09T22:37:48.908Z,100312.67
2019-01-09T22:40:18.125Z,100317.03
2019-01-09T22:42:46.230Z,100323.16
2019-01-09T22:45:14.868Z,100323.16
2019-01-09T22:47:43.063Z,100324.58
2019-01-09T22:50:14.708Z,100324.23
2019-01-09T22:52:42.978Z,100327.74
2019-01-09T22:55:11.037Z,100332.48
2019-01-09T22:57:39.103Z,100333.40
2019-01-09T23:00:46.848Z,100331.75
2019-01-09T23:03:15.380Z,100330.94
2019-01-09T23:05:43.789Z,100338.84
2019-01-09T23:08:12.559Z,100335.89
2019-01-09T23:10:40.637Z,100339.78
2019-01-09T23:13:08.635Z,100337.19
2019-01-09T23:15:37.344Z,100345.44
2019-01-09T23:18:06.107Z,100344.14
2019-01-09T23:20:34.130Z,100335.20
2019-01-09T23:23:02.242Z,100336.11
2019-01-09T23:25:30.248Z,100338.36
2019-01-09T23:27:58.280Z,100345.66
2019-01-09T23:30:26.265Z,100344.83
2019-01-09T23:32:54.282Z,100350.02
2019-01-09T23:35:22.399Z,100348.38
2019-01-09T23:37:50.420Z,100348.84
2019-01-09T23:40:18.971Z,100345.91
2019-01-09T23:42:47.094Z,100351.56
2019-01-09T23:45:15.116Z,100348.62
2019-01-09T23:47:43.258Z,100350.83
2019-01-09T23:50:11.515Z,100347.06
2019-01-09T23:52:40.072Z,100352.25
2019-01-09T23:55:11.312Z,100354.84
2019-01-09T23:57:39.432Z,100346.25
